Time;durP1;ratioP1;P1;durP2;ratioP2;P2;SDS_P1;SDS_P2;PMS_P1;PMS_P2;Temp;Humidity;BMP_temperature;BMP_pressure;BME280_temperature;BME280_humidity;BME280_pressure;Samples;Min_cycle;Max_cycle;Signal;HPM_P1;HPM_P2
2023/04/13 00:01:15;;;;;;;4.28;3.90;;;;;;;;;;5075437;28;20053;-94
2023/04/13 00:03:44;;;;;;;4.32;4.13;;;;;;;;;;5075904;28;20126;-93
2023/04/13 00:06:11;;;;;;;3.25;3.15;;;;;;;;;;5085975;28;20047;-95
2023/04/13 00:08:37;;;;;;;4.38;4.18;;;;;;;;;;5095880;28;20444;-93
2023/04/13 00:11:06;;;;;;;3.80;3.65;;;;;;;;;;5090439;28;20048;-93
2023/04/13 00:13:39;;;;;;;4.20;4.07;;;;;;;;;;5095851;28;20588;-93
2023/04/13 00:16:06;;;;;;;6.30;5.90;;;;;;;;;;5095580;28;20385;-93
2023/04/13 00:18:33;;;;;;;4.10;3.90;;;;;;;;;;5095912;28;20044;-93
2023/04/13 00:21:00;;;;;;;5.07;4.78;;;;;;;;;;5096211;28;20052;-93
2023/04/13 00:23:26;;;;;;;5.47;5.07;;;;;;;;;;5095828;28;20138;-94
2023/04/13 00:25:53;;;;;;;4.78;4.57;;;;;;;;;;5095664;28;20056;-93
2023/04/13 00:28:21;;;;;;;6.10;5.88;;;;;;;;;;5083407;28;20048;-93
2023/04/13 00:30:48;;;;;;;4.07;3.95;;;;;;;;;;5075324;28;20056;-93
2023/04/13 00:33:14;;;;;;;4.35;4.15;;;;;;;;;;5074972;28;20471;-92
2023/04/13 00:35:42;;;;;;;5.00;4.78;;;;;;;;;;5073861;28;20044;-93
2023/04/13 00:38:10;;;;;;;4.47;3.35;;;;;;;;;;5075650;28;20084;-93
2023/04/13 00:40:37;;;;;;;6.57;6.35;;;;;;;;;;5075099;28;20084;-93
2023/04/13 00:43:04;;;;;;;4.30;4.15;;;;;;;;;;5075195;28;20123;-93
2023/04/13 00:45:36;;;;;;;4.93;4.72;;;;;;;;;;5074316;28;20048;-92
2023/04/13 00:48:03;;;;;;;7.32;7.03;;;;;;;;;;5074457;28;20524;-92
2023/04/13 00:50:32;;;;;;;5.55;5.32;;;;;;;;;;5074609;28;20110;-92
2023/04/13 00:53:00;;;;;;;4.20;4.00;;;;;;;;;;5074478;28;20056;-93
2023/04/13 00:55:27;;;;;;;5.13;4.93;;;;;;;;;;5074416;28;20054;-92
2023/04/13 00:57:54;;;;;;;6.70;6.18;;;;;;;;;;5074650;28;20063;-91
2023/04/13 01:00:23;;;;;;;10.85;10.45;;;;;;;;;;5074346;28;20048;-91
2023/04/13 01:02:51;;;;;;;4.28;4.07;;;;;;;;;;5075890;28;20048;-91
2023/04/13 01:05:18;;;;;;;4.30;4.13;;;;;;;;;;5074337;28;20505;-91
2023/04/13 01:07:49;;;;;;;4.75;4.55;;;;;;;;;;5074840;28;20056;-92
2023/04/13 01:10:18;;;;;;;2.85;2.75;;;;;;;;;;5074622;28;20041;-92
2023/04/13 01:12:56;;;;;;;4.65;4.35;;;;;;;;;;5074882;28;20048;-93
2023/04/13 01:15:26;;;;;;;4.68;4.47;;;;;;;;;;5074968;28;20413;-92
2023/04/13 01:17:56;;;;;;;3.72;3.60;;;;;;;;;;5074849;28;20056;-92
2023/04/13 01:20:24;;;;;;;4.47;4.28;;;;;;;;;;5072842;28;20048;-92
2023/04/13 01:22:54;;;;;;;4.65;4.45;;;;;;;;;;5074154;28;20056;-91
2023/04/13 01:25:26;;;;;;;4.15;4.00;;;;;;;;;;5074136;28;20048;-90
2023/04/13 01:27:55;;;;;;;2.88;2.78;;;;;;;;;;5073998;28;20121;-91
2023/04/13 01:30:25;;;;;;;4.20;4.05;;;;;;;;;;5073934;28;20048;-91
2023/04/13 01:32:52;;;;;;;2.45;2.35;;;;;;;;;;5073756;28;20053;-92
2023/04/13 01:35:19;;;;;;;5.30;5.00;;;;;;;;;;5072703;28;20144;-91
2023/04/13 01:37:46;;;;;;;2.33;2.22;;;;;;;;;;5075074;28;20049;-91
2023/04/13 01:40:12;;;;;;;3.45;3.33;;;;;;;;;;5073862;28;20044;-92
2023/04/13 01:42:39;;;;;;;3.15;3.05;;;;;;;;;;5074272;28;20048;-92
2023/04/13 01:45:10;;;;;;;3.28;3.17;;;;;;;;;;5074313;28;20056;-92
2023/04/13 01:47:38;;;;;;;4.43;4.22;;;;;;;;;;5077080;28;20052;-92
2023/04/13 01:50:07;;;;;;;2.25;2.15;;;;;;;;;;5078179;28;20052;-92
2023/04/13 01:52:35;;;;;;;2.53;2.42;;;;;;;;;;5077919;28;20063;-93
2023/04/13 01:55:03;;;;;;;3.72;3.60;;;;;;;;;;5077881;28;20098;-93
2023/04/13 01:57:30;;;;;;;2.42;2.33;;;;;;;;;;5078106;28;20057;-93
2023/04/13 01:59:57;;;;;;;3.13;2.92;;;;;;;;;;5078068;28;20082;-93
2023/04/13 02:02:25;;;;;;;4.72;4.30;;;;;;;;;;5077654;28;20052;-93
2023/04/13 02:04:52;;;;;;;3.60;3.47;;;;;;;;;;5077490;28;20098;-93
2023/04/13 02:07:18;;;;;;;6.97;6.72;;;;;;;;;;5077398;28;20056;-92
2023/04/13 02:09:45;;;;;;;4.13;3.92;;;;;;;;;;5077257;28;20044;-91
2023/04/13 02:12:12;;;;;;;4.55;4.35;;;;;;;;;;5077266;28;20052;-92
2023/04/13 02:14:38;;;;;;;4.68;4.47;;;;;;;;;;5077082;28;20041;-92
2023/04/13 02:17:05;;;;;;;3.13;3.03;;;;;;;;;;5077321;28;20053;-91
2023/04/13 02:19:33;;;;;;;4.38;4.20;;;;;;;;;;5076975;28;20494;-91
2023/04/13 02:22:00;;;;;;;3.92;3.78;;;;;;;;;;5077204;28;20110;-91
2023/04/13 02:24:26;;;;;;;4.57;4.38;;;;;;;;;;5077422;28;20048;-92
2023/04/13 02:26:53;;;;;;;5.07;4.88;;;;;;;;;;5077152;28;20098;-92
2023/04/13 02:29:19;;;;;;;3.45;3.33;;;;;;;;;;5077333;28;20523;-93
2023/04/13 02:31:46;;;;;;;4.82;4.63;;;;;;;;;;5077271;28;20110;-93
2023/04/13 02:34:12;;;;;;;3.20;3.10;;;;;;;;;;5077543;28;20048;-93
2023/04/13 02:36:41;;;;;;;6.15;5.95;;;;;;;;;;5077316;28;20098;-93
2023/04/13 02:39:08;;;;;;;2.47;2.38;;;;;;;;;;5077611;28;20108;-92
2023/04/13 02:41:34;;;;;;;3.15;3.05;;;;;;;;;;5077282;28;20125;-93
2023/04/13 02:44:01;;;;;;;5.07;4.78;;;;;;;;;;5064194;28;20052;-93
2023/04/13 02:46:27;;;;;;;3.60;3.47;;;;;;;;;;5056945;28;20102;-93
2023/04/13 02:48:55;;;;;;;4.07;3.95;;;;;;;;;;5056959;28;20061;-93
2023/04/13 02:51:21;;;;;;;2.22;2.13;;;;;;;;;;5056808;28;20437;-93
2023/04/13 02:53:50;;;;;;;4.50;4.30;;;;;;;;;;5056703;28;20056;-92
2023/04/13 02:56:17;;;;;;;4.03;3.88;;;;;;;;;;5056474;28;20045;-92
2023/04/13 02:58:44;;;;;;;5.15;4.95;;;;;;;;;;5055433;28;20659;-93
2023/04/13 03:01:11;;;;;;;4.57;4.38;;;;;;;;;;5071875;28;20056;-92
2023/04/13 03:03:40;;;;;;;2.85;2.75;;;;;;;;;;5076193;28;20551;-93
2023/04/13 03:06:07;;;;;;;3.72;3.60;;;;;;;;;;5076564;28;20413;-92
2023/04/13 03:08:34;;;;;;;5.85;5.65;;;;;;;;;;5076344;28;20060;-93
2023/04/13 03:11:02;;;;;;;3.20;3.10;;;;;;;;;;5076291;28;20098;-91
2023/04/13 03:13:29;;;;;;;3.28;3.15;;;;;;;;;;5076663;28;20052;-92
2023/04/13 03:15:56;;;;;;;2.92;2.80;;;;;;;;;;5076100;28;20091;-92
2023/04/13 03:18:23;;;;;;;3.92;3.80;;;;;;;;;;5076090;28;20044;-92
2023/04/13 03:20:50;;;;;;;3.97;3.83;;;;;;;;;;5076630;28;20458;-92
2023/04/13 03:23:16;;;;;;;2.83;2.72;;;;;;;;;;5076314;28;20489;-93
2023/04/13 03:25:43;;;;;;;5.13;4.93;;;;;;;;;;5076766;28;20708;-93
2023/04/13 03:28:11;;;;;;;2.92;2.83;;;;;;;;;;5076822;28;20053;-93
2023/04/13 03:30:37;;;;;;;5.32;5.13;;;;;;;;;;5076506;28;20060;-92
2023/04/13 03:33:04;;;;;;;3.88;3.75;;;;;;;;;;5076464;28;20137;-92
2023/04/13 03:35:31;;;;;;;3.85;3.72;;;;;;;;;;5076805;28;20044;-92
2023/04/13 03:37:57;;;;;;;5.45;5.25;;;;;;;;;;5096069;28;20043;-92
2023/04/13 03:40:24;;;;;;;3.63;3.53;;;;;;;;;;5096055;28;20059;-92
2023/04/13 03:42:50;;;;;;;2.75;2.65;;;;;;;;;;5095663;28;20051;-92
2023/04/13 03:45:18;;;;;;;3.15;3.05;;;;;;;;;;5095652;28;20776;-91
2023/04/13 03:47:45;;;;;;;5.25;5.05;;;;;;;;;;5095674;28;20051;-91
2023/04/13 03:50:11;;;;;;;3.75;3.63;;;;;;;;;;5095991;28;20504;-92
2023/04/13 03:52:38;;;;;;;2.30;2.20;;;;;;;;;;5090229;28;20046;-92
2023/04/13 03:55:05;;;;;;;3.88;3.65;;;;;;;;;;5095959;28;20370;-93
2023/04/13 03:57:32;;;;;;;2.85;2.72;;;;;;;;;;5095588;28;20144;-93
2023/04/13 03:59:58;;;;;;;3.17;3.05;;;;;;;;;;5096110;28;20059;-92
2023/04/13 04:02:26;;;;;;;2.45;2.35;;;;;;;;;;5095407;28;20048;-92
2023/04/13 04:04:53;;;;;;;4.15;3.95;;;;;;;;;;5095402;28;20489;-92
2023/04/13 04:07:21;;;;;;;3.58;3.47;;;;;;;;;;5095585;28;20056;-93
2023/04/13 04:09:48;;;;;;;4.25;1.98;;;;;;;;;;5087362;28;20051;-93
2023/04/13 04:12:14;;;;;;;3.03;2.90;;;;;;;;;;5076356;28;20161;-93
2023/04/13 04:14:41;;;;;;;4.13;3.97;;;;;;;;;;5075150;28;20460;-92
2023/04/13 04:17:07;;;;;;;2.47;2.38;;;;;;;;;;5075128;28;20406;-92
2023/04/13 04:19:36;;;;;;;4.45;4.25;;;;;;;;;;5074558;28;20110;-93
2023/04/13 04:22:03;;;;;;;3.03;2.92;;;;;;;;;;5074725;28;20049;-94
2023/04/13 04:24:29;;;;;;;3.67;3.33;;;;;;;;;;5074777;28;20460;-94
2023/04/13 04:26:57;;;;;;;2.97;2.88;;;;;;;;;;5074373;28;20041;-94
2023/04/13 04:29:28;;;;;;;2.53;2.42;;;;;;;;;;5075126;28;20121;-94
2023/04/13 04:31:55;;;;;;;3.55;3.42;;;;;;;;;;5074937;28;20083;-94
2023/04/13 04:34:22;;;;;;;4.00;3.80;;;;;;;;;;5077185;28;20131;-93
2023/04/13 04:36:50;;;;;;;3.78;3.63;;;;;;;;;;5075482;28;20053;-93
2023/04/13 04:39:20;;;;;;;3.95;3.80;;;;;;;;;;5075477;28;20045;-93
2023/04/13 04:41:47;;;;;;;3.90;3.78;;;;;;;;;;5075499;28;20097;-94
2023/04/13 04:44:15;;;;;;;4.47;4.28;;;;;;;;;;5084180;28;20078;-94
2023/04/13 04:46:42;;;;;;;5.32;5.13;;;;;;;;;;5075474;28;20059;-94
2023/04/13 04:49:08;;;;;;;4.32;4.10;;;;;;;;;;5075134;28;20053;-94
2023/04/13 04:51:36;;;;;;;4.50;4.30;;;;;;;;;;5075444;28;20056;-94
2023/04/13 04:54:06;;;;;;;5.07;4.85;;;;;;;;;;5075387;28;20056;-94
2023/04/13 04:56:32;;;;;;;5.03;4.82;;;;;;;;;;5076882;28;20044;-94
2023/04/13 04:58:59;;;;;;;5.13;4.85;;;;;;;;;;5075976;28;20093;-92
2023/04/13 05:01:26;;;;;;;4.43;4.13;;;;;;;;;;5095677;28;20052;-93
2023/04/13 05:03:52;;;;;;;4.35;4.15;;;;;;;;;;5095004;28;20071;-94
2023/04/13 05:06:19;;;;;;;5.57;5.25;;;;;;;;;;5095545;28;20059;-93
2023/04/13 05:08:46;;;;;;;4.88;4.65;;;;;;;;;;5094673;28;20052;-93
2023/04/13 05:11:14;;;;;;;2.70;2.60;;;;;;;;;;5094600;28;20121;-93
2023/04/13 05:13:40;;;;;;;5.88;5.60;;;;;;;;;;5081010;28;20049;-91
2023/04/13 05:16:09;;;;;;;3.25;3.13;;;;;;;;;;5062081;28;20085;-93
2023/04/13 05:18:43;;;;;;;5.80;5.55;;;;;;;;;;5074345;28;20132;-93
2023/04/13 05:21:10;;;;;;;4.35;4.15;;;;;;;;;;5073471;28;20448;-93
2023/04/13 05:23:37;;;;;;;3.92;3.72;;;;;;;;;;5074801;28;20045;-93
2023/04/13 05:26:04;;;;;;;6.22;4.68;;;;;;;;;;5074548;28;20041;-93
2023/04/13 05:28:33;;;;;;;5.63;5.43;;;;;;;;;;5074648;28;20052;-93
2023/04/13 05:31:00;;;;;;;5.18;4.97;;;;;;;;;;5074337;28;20044;-93
2023/04/13 05:33:27;;;;;;;4.53;4.32;;;;;;;;;;5082906;28;20127;-93
2023/04/13 05:35:53;;;;;;;5.68;5.45;;;;;;;;;;5087295;28;20489;-93
2023/04/13 05:38:20;;;;;;;4.78;4.57;;;;;;;;;;5077601;28;20829;-93
2023/04/13 05:40:47;;;;;;;5.32;5.03;;;;;;;;;;5090535;28;20037;-93
2023/04/13 05:43:14;;;;;;;4.82;4.63;;;;;;;;;;5081402;28;20044;-92
2023/04/13 05:45:42;;;;;;;5.75;5.45;;;;;;;;;;5082756;28;20045;-93
2023/04/13 05:48:08;;;;;;;4.18;3.95;;;;;;;;;;5089161;28;20497;-93
2023/04/13 05:50:35;;;;;;;6.32;6.13;;;;;;;;;;5076932;28;20063;-93
2023/04/13 05:53:01;;;;;;;5.05;4.85;;;;;;;;;;5087648;28;20062;-93
2023/04/13 05:55:28;;;;;;;4.95;4.75;;;;;;;;;;5075674;28;20052;-93
2023/04/13 05:57:55;;;;;;;4.60;4.38;;;;;;;;;;5087087;28;20087;-92
2023/04/13 06:00:22;;;;;;;9.82;9.43;;;;;;;;;;5076017;28;20052;-92
2023/04/13 06:02:50;;;;;;;5.90;5.65;;;;;;;;;;5077676;28;20052;-93
2023/04/13 06:05:17;;;;;;;6.38;6.15;;;;;;;;;;5085131;28;20041;-93
2023/04/13 06:07:45;;;;;;;9.40;8.93;;;;;;;;;;5084941;28;20378;-93
2023/04/13 06:10:13;;;;;;;5.22;4.88;;;;;;;;;;5058699;28;20053;-93
2023/04/13 06:12:39;;;;;;;5.05;4.82;;;;;;;;;;5053252;28;20088;-93
2023/04/13 06:15:07;;;;;;;9.10;8.70;;;;;;;;;;5061901;28;20059;-93
2023/04/13 06:17:33;;;;;;;5.70;5.47;;;;;;;;;;5073814;28;20045;-93
2023/04/13 06:20:03;;;;;;;5.88;5.65;;;;;;;;;;5074235;28;20060;-94
2023/04/13 06:22:29;;;;;;;6.78;6.47;;;;;;;;;;5074127;28;20052;-94
2023/04/13 06:24:56;;;;;;;4.35;4.13;;;;;;;;;;5074037;28;20101;-94
2023/04/13 06:27:22;;;;;;;6.43;6.13;;;;;;;;;;5065261;28;20087;-94
2023/04/13 06:29:50;;;;;;;8.65;8.32;;;;;;;;;;5053847;28;20049;-94
2023/04/13 06:32:16;;;;;;;6.35;6.07;;;;;;;;;;5053860;28;20090;-94
2023/04/13 06:34:44;;;;;;;4.95;4.68;;;;;;;;;;5096499;28;20078;-94
2023/04/13 06:37:12;;;;;;;6.85;6.55;;;;;;;;;;5097421;28;20044;-94
2023/04/13 06:39:38;;;;;;;6.03;5.80;;;;;;;;;;5097302;28;20484;-94
2023/04/13 06:42:05;;;;;;;7.78;7.43;;;;;;;;;;5097542;28;20520;-94
2023/04/13 06:44:31;;;;;;;6.00;5.65;;;;;;;;;;5096781;28;20074;-94
2023/04/13 06:46:58;;;;;;;8.55;8.23;;;;;;;;;;5079413;28;20440;-94
2023/04/13 06:49:25;;;;;;;7.70;7.38;;;;;;;;;;5076375;28;20056;-94
2023/04/13 06:51:51;;;;;;;8.35;7.88;;;;;;;;;;5076132;28;20056;-94
2023/04/13 06:54:19;;;;;;;9.57;8.43;;;;;;;;;;5090993;28;20052;-95
2023/04/13 06:56:46;;;;;;;8.15;7.82;;;;;;;;;;5096947;28;20055;-95
2023/04/13 06:59:13;;;;;;;8.10;7.80;;;;;;;;;;5093648;28;20044;-94
2023/04/13 07:01:39;;;;;;;15.52;14.80;;;;;;;;;;5098447;28;20501;-95
2023/04/13 07:04:06;;;;;;;9.85;9.43;;;;;;;;;;5098118;28;20044;-94
2023/04/13 07:06:33;;;;;;;12.00;11.55;;;;;;;;;;5099186;28;20050;-95
2023/04/13 07:08:59;;;;;;;10.77;10.35;;;;;;;;;;5097850;28;20044;-93
2023/04/13 07:11:27;;;;;;;12.35;11.82;;;;;;;;;;5092267;28;20060;-95
2023/04/13 07:13:57;;;;;;;9.75;9.38;;;;;;;;;;5083546;28;20049;-93
2023/04/13 07:16:23;;;;;;;11.65;11.07;;;;;;;;;;5082915;28;20053;-95
2023/04/13 07:18:50;;;;;;;14.27;13.65;;;;;;;;;;5082901;28;20056;-96
2023/04/13 07:21:16;;;;;;;13.05;12.52;;;;;;;;;;5078993;28;20055;-95
2023/04/13 07:23:44;;;;;;;10.25;9.77;;;;;;;;;;5080771;28;20048;-95
2023/04/13 07:26:12;;;;;;;14.77;14.07;;;;;;;;;;5084531;28;20052;-95
2023/04/13 07:28:48;;;;;;;11.13;10.70;;;;;;;;;;5083815;28;20106;-96
2023/04/13 07:31:16;;;;;;;12.30;11.82;;;;;;;;;;5080383;28;20098;-94
2023/04/13 07:33:42;;;;;;;14.32;13.68;;;;;;;;;;5081259;28;20071;-95
2023/04/13 07:36:10;;;;;;;10.82;10.32;;;;;;;;;;5082908;28;20436;-94
2023/04/13 07:38:37;;;;;;;10.00;9.57;;;;;;;;;;5083380;28;20106;-94
2023/04/13 07:41:03;;;;;;;17.05;16.42;;;;;;;;;;5077969;28;20044;-94
2023/04/13 07:43:30;;;;;;;9.02;8.55;;;;;;;;;;5083298;28;20053;-94
2023/04/13 07:45:58;;;;;;;13.27;12.68;;;;;;;;;;5079176;28;20049;-93
2023/04/13 07:48:26;;;;;;;16.83;16.15;;;;;;;;;;5083489;28;20036;-96
2023/04/13 07:50:52;;;;;;;18.95;18.13;;;;;;;;;;5090978;28;20052;-95
2023/04/13 07:53:19;;;;;;;18.75;18.05;;;;;;;;;;5085486;28;20060;-95
2023/04/13 07:55:46;;;;;;;15.35;14.80;;;;;;;;;;5084295;28;20048;-94
2023/04/13 07:58:13;;;;;;;15.02;14.43;;;;;;;;;;5084453;28;20060;-95
2023/04/13 08:00:39;;;;;;;16.95;16.33;;;;;;;;;;5076799;28;20052;-94
2023/04/13 08:03:08;;;;;;;14.00;13.40;;;;;;;;;;5080830;28;20063;-95
2023/04/13 08:05:35;;;;;;;17.45;16.83;;;;;;;;;;5089468;28;20048;-95
2023/04/13 08:08:02;;;;;;;19.05;18.30;;;;;;;;;;5095559;28;20063;-96
2023/04/13 08:10:29;;;;;;;14.90;14.23;;;;;;;;;;5106757;28;20048;-96
2023/04/13 08:13:02;;;;;;;13.70;13.18;;;;;;;;;;5112964;28;20067;-96
2023/04/13 08:15:30;;;;;;;22.30;21.42;;;;;;;;;;5113393;28;20048;-94
2023/04/13 08:17:58;;;;;;;18.77;18.02;;;;;;;;;;5110217;28;20039;-94
2023/04/13 08:20:26;;;;;;;19.77;18.95;;;;;;;;;;5113296;28;20055;-94
2023/04/13 08:23:01;;;;;;;21.45;20.63;;;;;;;;;;5094786;28;20062;-94
2023/04/13 08:25:31;;;;;;;17.92;17.17;;;;;;;;;;5108050;28;20067;-95
2023/04/13 08:28:02;;;;;;;15.25;14.63;;;;;;;;;;5094291;28;20078;-96
2023/04/13 08:30:32;;;;;;;18.83;18.10;;;;;;;;;;5094261;28;20049;-96
2023/04/13 08:33:05;;;;;;;29.13;28.08;;;;;;;;;;5096044;28;20037;-95
2023/04/13 08:35:38;;;;;;;16.58;15.95;;;;;;;;;;5091013;28;20047;-95
2023/04/13 08:38:05;;;;;;;20.90;20.15;;;;;;;;;;5095005;28;20107;-96
2023/04/13 08:40:36;;;;;;;26.05;25.05;;;;;;;;;;5094723;28;20043;-95
2023/04/13 08:43:10;;;;;;;20.65;19.83;;;;;;;;;;5092320;28;20052;-95
2023/04/13 08:45:41;;;;;;;34.35;33.13;;;;;;;;;;5094545;28;20056;-96
2023/04/13 08:48:13;;;;;;;23.77;22.85;;;;;;;;;;5075509;28;20037;-96
2023/04/13 08:51:00;;;;;;;26.70;25.70;;;;;;;;;;5075043;28;20049;-96
2023/04/13 08:53:29;;;;;;;21.60;20.77;;;;;;;;;;5074732;28;20111;-96
2023/04/13 08:55:59;;;;;;;25.95;24.92;;;;;;;;;;5084178;28;20040;-96
2023/04/13 08:58:28;;;;;;;28.10;27.02;;;;;;;;;;5095857;28;20040;-96
2023/04/13 09:00:56;;;;;;;26.45;25.42;;;;;;;;;;5095321;28;20049;-96
2023/04/13 09:03:24;;;;;;;23.17;22.30;;;;;;;;;;5094994;28;20043;-96
2023/04/13 09:05:54;;;;;;;26.13;24.38;;;;;;;;;;5093514;28;20048;-96
2023/04/13 09:08:22;;;;;;;27.48;26.45;;;;;;;;;;5091642;28;20084;-96
2023/04/13 09:10:51;;;;;;;24.65;23.73;;;;;;;;;;5084034;28;20098;-94
2023/04/13 09:13:18;;;;;;;24.98;24.05;;;;;;;;;;5094326;28;20496;-95
2023/04/13 09:15:46;;;;;;;30.13;28.85;;;;;;;;;;5114055;28;20048;-96
2023/04/13 09:18:16;;;;;;;37.17;35.70;;;;;;;;;;5096158;28;20055;-96
2023/04/13 09:20:42;;;;;;;29.50;28.35;;;;;;;;;;5094948;28;20079;-95
2023/04/13 09:23:14;;;;;;;28.83;27.73;;;;;;;;;;5086544;28;20049;-96
2023/04/13 09:25:45;;;;;;;37.20;35.83;;;;;;;;;;5092205;28;20056;-96
2023/04/13 09:28:22;;;;;;;41.03;39.47;;;;;;;;;;5092786;28;20044;-96
2023/04/13 09:30:49;;;;;;;27.58;26.55;;;;;;;;;;5083412;28;20040;-95
2023/04/13 09:33:16;;;;;;;27.50;26.45;;;;;;;;;;5078611;28;20624;-96
2023/04/13 09:35:43;;;;;;;33.88;32.65;;;;;;;;;;5081243;28;20482;-95
2023/04/13 09:38:14;;;;;;;35.50;34.17;;;;;;;;;;5078510;28;20048;-95
2023/04/13 09:40:47;;;;;;;33.42;32.17;;;;;;;;;;5077564;28;20060;-95
2023/04/13 09:43:14;;;;;;;38.17;36.70;;;;;;;;;;5080245;28;20060;-95
2023/04/13 09:45:43;;;;;;;37.90;36.60;;;;;;;;;;5076483;28;20057;-94
2023/04/13 09:48:16;;;;;;;34.17;32.83;;;;;;;;;;5081737;28;20048;-94
2023/04/13 09:50:44;;;;;;;32.42;31.05;;;;;;;;;;5080835;28;20076;-96
2023/04/13 09:53:11;;;;;;;41.08;39.55;;;;;;;;;;5088872;28;20052;-96
2023/04/13 09:55:38;;;;;;;28.23;27.13;;;;;;;;;;5085317;28;20087;-96
2023/04/13 09:58:09;;;;;;;32.15;30.95;;;;;;;;;;5088359;28;20079;-95
2023/04/13 10:00:37;;;;;;;32.08;30.85;;;;;;;;;;5091438;28;20053;-95
2023/04/13 10:03:11;;;;;;;49.95;48.17;;;;;;;;;;5089195;28;20068;-96
2023/04/13 10:05:44;;;;;;;39.35;37.92;;;;;;;;;;5095951;28;20055;-96
2023/04/13 10:08:12;;;;;;;32.47;31.05;;;;;;;;;;5096079;28;20061;-95
2023/04/13 10:10:40;;;;;;;37.60;36.20;;;;;;;;;;5096840;28;20055;-96
2023/04/13 10:13:11;;;;;;;38.15;36.70;;;;;;;;;;5092705;28;20044;-95
2023/04/13 10:15:47;;;;;;;41.03;39.50;;;;;;;;;;5093032;28;20051;-96
2023/04/13 10:18:43;;;;;;;44.10;42.47;;;;;;;;;;5093424;28;20051;-96
2023/04/13 10:21:13;;;;;;;41.20;39.70;;;;;;;;;;5131015;28;20116;-96
2023/04/13 10:23:40;;;;;;;38.60;37.15;;;;;;;;;;5136101;28;20074;-96
2023/04/13 10:26:10;;;;;;;42.85;41.33;;;;;;;;;;5132691;28;20125;-96
2023/04/13 10:28:44;;;;;;;39.83;38.40;;;;;;;;;;5135887;28;20100;-96
2023/04/13 10:31:11;;;;;;;42.58;40.95;;;;;;;;;;5128457;28;20047;-96
2023/04/13 10:33:47;;;;;;;38.15;36.75;;;;;;;;;;5133101;28;20051;-94
2023/04/13 10:36:15;;;;;;;35.75;34.40;;;;;;;;;;5133827;28;20044;-96
2023/04/13 10:38:42;;;;;;;47.17;45.45;;;;;;;;;;5132647;28;20047;-96
2023/04/13 10:41:10;;;;;;;37.45;36.08;;;;;;;;;;5130490;28;20047;-95
2023/04/13 10:43:55;;;;;;;39.17;37.65;;;;;;;;;;5129238;28;20082;-95
2023/04/13 10:46:26;;;;;;;36.30;34.95;;;;;;;;;;5126710;28;20107;-96
2023/04/13 10:48:54;;;;;;;41.38;39.85;;;;;;;;;;5130383;28;20111;-96
2023/04/13 10:51:30;;;;;;;40.08;38.55;;;;;;;;;;5112703;28;20048;-96
2023/04/13 10:54:03;;;;;;;38.13;36.78;;;;;;;;;;5112822;28;20052;-96
2023/04/13 10:56:30;;;;;;;44.97;43.35;;;;;;;;;;5121877;28;20055;-95
2023/04/13 10:58:57;;;;;;;36.20;34.90;;;;;;;;;;5128881;28;20055;-96
2023/04/13 11:01:24;;;;;;;29.17;28.05;;;;;;;;;;5133155;28;20131;-96
2023/04/13 11:03:51;;;;;;;44.38;42.83;;;;;;;;;;5131427;28;20071;-96
2023/04/13 11:06:39;;;;;;;39.90;38.50;;;;;;;;;;5132998;28;20055;-94
2023/04/13 11:09:08;;;;;;;48.58;46.88;;;;;;;;;;5096809;28;20047;-93
2023/04/13 11:11:36;;;;;;;26.58;25.60;;;;;;;;;;5122542;28;20043;-95
2023/04/13 11:14:03;;;;;;;43.58;42.00;;;;;;;;;;5107987;28;20055;-95
2023/04/13 11:16:30;;;;;;;41.25;39.83;;;;;;;;;;5106254;28;20052;-94
2023/04/13 11:19:04;;;;;;;37.65;36.25;;;;;;;;;;5111778;28;20056;-94
2023/04/13 11:21:31;;;;;;;43.88;42.33;;;;;;;;;;5122483;28;20056;-96
2023/04/13 11:24:02;;;;;;;39.33;37.92;;;;;;;;;;5112286;28;20519;-94
2023/04/13 11:26:34;;;;;;;34.95;33.65;;;;;;;;;;5109985;28;20044;-95
2023/04/13 11:29:02;;;;;;;33.22;32.00;;;;;;;;;;5108836;28;20040;-95
2023/04/13 11:31:37;;;;;;;34.92;33.65;;;;;;;;;;5120923;28;20055;-95
2023/04/13 11:34:05;;;;;;;44.83;43.20;;;;;;;;;;5107698;28;20069;-95
2023/04/13 11:36:32;;;;;;;44.33;42.80;;;;;;;;;;5109576;28;20071;-96
2023/04/13 11:39:04;;;;;;;47.22;45.60;;;;;;;;;;5126148;28;20044;-96
2023/04/13 11:41:31;;;;;;;35.60;34.08;;;;;;;;;;5120353;28;20102;-96
2023/04/13 11:44:00;;;;;;;41.78;40.28;;;;;;;;;;5084383;28;20056;-94
2023/04/13 11:46:27;;;;;;;33.78;32.55;;;;;;;;;;5120445;28;20098;-95
2023/04/13 11:48:53;;;;;;;32.20;31.02;;;;;;;;;;5113169;28;20069;-94
2023/04/13 11:51:20;;;;;;;40.90;39.45;;;;;;;;;;5123645;28;20120;-96
2023/04/13 11:53:47;;;;;;;36.75;35.45;;;;;;;;;;5102183;28;20119;-96
2023/04/13 11:56:15;;;;;;;37.83;36.47;;;;;;;;;;5109400;28;20118;-94
2023/04/13 11:58:42;;;;;;;34.45;33.10;;;;;;;;;;5110986;28;20044;-95
2023/04/13 12:01:12;;;;;;;32.95;31.73;;;;;;;;;;5107933;28;20059;-94
2023/04/13 12:03:39;;;;;;;45.35;43.75;;;;;;;;;;5102065;28;20060;-95
2023/04/13 12:06:08;;;;;;;38.90;37.53;;;;;;;;;;5109510;28;20052;-96
2023/04/13 12:08:36;;;;;;;32.63;31.42;;;;;;;;;;5128445;28;20068;-96
2023/04/13 12:11:04;;;;;;;35.30;34.05;;;;;;;;;;5111234;28;20048;-96
2023/04/13 12:16:53;;;;;;;27.80;26.77;;;;;;;;;;5073365;28;20068;-96
2023/04/13 12:19:25;;;;;;;36.13;34.80;;;;;;;;;;5069439;28;20079;-96
2023/04/13 12:24:34;;;;;;;43.03;41.45;;;;;;;;;;5044792;28;20076;-95
2023/04/13 12:27:06;;;;;;;39.97;38.53;;;;;;;;;;5051227;28;20128;-95
2023/04/13 12:29:36;;;;;;;42.50;41.00;;;;;;;;;;5071401;28;20039;-96
2023/04/13 12:32:10;;;;;;;;;;;;;;;;;;5070903;28;20045;-96
2023/04/13 12:34:47;;;;;;;42.78;41.22;;;;;;;;;;5070605;28;19931;-96
2023/04/13 12:37:17;;;;;;;30.67;29.48;;;;;;;;;;5069114;28;20104;-96
2023/04/13 12:39:44;;;;;;;38.65;37.25;;;;;;;;;;5041262;28;20059;-96
2023/04/13 12:42:13;;;;;;;41.72;40.22;;;;;;;;;;5047176;28;20069;-93
2023/04/13 13:03:13;;;;;;;39.08;37.65;;;;;;;;;;4983242;28;20488;-94
2023/04/13 13:05:40;;;;;;;38.78;37.25;;;;;;;;;;4988301;28;20050;-95
2023/04/13 13:08:07;;;;;;;45.80;44.17;;;;;;;;;;4987868;28;20042;-96
2023/04/13 13:10:35;;;;;;;44.53;42.90;;;;;;;;;;4987657;28;20058;-95
2023/04/13 13:13:03;;;;;;;40.65;39.15;;;;;;;;;;4966759;29;20407;-93
2023/04/13 13:15:30;;;;;;;35.67;34.40;;;;;;;;;;4963954;28;20055;-95
2023/04/13 13:17:56;;;;;;;48.72;47.00;;;;;;;;;;4973975;28;20445;-94
2023/04/13 13:20:25;;;;;;;46.38;44.72;;;;;;;;;;5006216;28;20050;-95
2023/04/13 13:22:51;;;;;;;46.30;44.67;;;;;;;;;;4985356;28;20042;-93
2023/04/13 13:25:18;;;;;;;49.25;47.50;;;;;;;;;;5001408;28;20057;-95
2023/04/13 13:27:45;;;;;;;49.08;47.30;;;;;;;;;;4990150;28;20055;-95
2023/04/13 13:30:13;;;;;;;39.10;37.53;;;;;;;;;;4985959;28;20050;-95
2023/04/13 13:32:39;;;;;;;42.53;41.00;;;;;;;;;;4983642;28;20051;-94
2023/04/13 13:35:07;;;;;;;55.15;53.10;;;;;;;;;;4981608;28;20054;-92
2023/04/13 13:37:35;;;;;;;34.08;32.83;;;;;;;;;;4984984;28;20051;-95
2023/04/13 13:40:11;;;;;;;43.63;41.97;;;;;;;;;;4985860;28;20051;-95
2023/04/13 13:42:38;;;;;;;42.45;40.92;;;;;;;;;;4990657;28;20074;-94
2023/04/13 13:45:05;;;;;;;47.53;45.65;;;;;;;;;;4990938;28;20042;-93
2023/04/13 13:47:31;;;;;;;51.22;49.42;;;;;;;;;;4991082;28;20058;-94
2023/04/13 13:49:58;;;;;;;40.67;39.22;;;;;;;;;;4991244;28;20051;-95
2023/04/13 13:52:28;;;;;;;37.00;35.67;;;;;;;;;;4991900;28;20050;-96
2023/04/13 13:54:54;;;;;;;;;;;;;;;;;;4991739;28;20057;-94
2023/04/13 13:57:22;;;;;;;37.03;35.45;;;;;;;;;;4994026;28;19965;-95
2023/04/13 13:59:50;;;;;;;40.85;39.33;;;;;;;;;;4992805;28;20047;-95
2023/04/13 14:02:19;;;;;;;35.80;34.53;;;;;;;;;;5005855;28;20085;-96
2023/04/13 14:04:45;;;;;;;32.03;30.80;;;;;;;;;;4995697;28;20067;-95
2023/04/13 14:07:13;;;;;;;38.47;37.08;;;;;;;;;;4996590;28;20080;-94
2023/04/13 14:09:39;;;;;;;40.30;38.88;;;;;;;;;;4996361;28;20076;-95
2023/04/13 14:12:06;;;;;;;30.25;29.02;;;;;;;;;;4991802;28;20055;-96
2023/04/13 14:14:36;;;;;;;26.75;25.75;;;;;;;;;;4990166;28;20051;-96
2023/04/13 14:17:09;;;;;;;30.52;29.38;;;;;;;;;;4972875;28;20055;-96
2023/04/13 14:19:36;;;;;;;29.55;28.42;;;;;;;;;;4972103;29;20082;-95
2023/04/13 14:22:03;;;;;;;36.38;35.05;;;;;;;;;;4994594;28;20050;-96
2023/04/13 14:24:32;;;;;;;32.60;31.33;;;;;;;;;;5010920;28;20072;-95
2023/04/13 14:29:45;;;;;;;29.25;28.17;;;;;;;;;;4989796;28;20535;-96
2023/04/13 14:32:12;;;;;;;33.00;31.80;;;;;;;;;;4984815;28;20061;-96
2023/04/13 14:34:38;;;;;;;35.58;34.08;;;;;;;;;;4987856;28;20054;-96
2023/04/13 14:37:05;;;;;;;45.38;43.70;;;;;;;;;;5004109;28;20054;-96
2023/04/13 14:39:37;;;;;;;29.65;28.58;;;;;;;;;;5004523;28;20050;-96
2023/04/13 14:42:04;;;;;;;30.15;29.02;;;;;;;;;;5005146;28;20114;-96
2023/04/13 14:44:31;;;;;;;33.08;31.75;;;;;;;;;;4991686;28;20105;-96
2023/04/13 14:46:59;;;;;;;36.53;35.15;;;;;;;;;;5003463;28;20050;-96
2023/04/13 14:49:26;;;;;;;40.20;38.75;;;;;;;;;;5003070;28;20065;-96
2023/04/13 14:51:52;;;;;;;45.75;43.92;;;;;;;;;;5003125;28;20050;-96
2023/04/13 14:54:19;;;;;;;43.95;42.20;;;;;;;;;;5003547;28;20069;-96
2023/04/13 14:56:50;;;;;;;41.30;39.85;;;;;;;;;;5003744;28;20085;-96
2023/04/13 14:59:16;;;;;;;41.22;39.70;;;;;;;;;;4984711;28;20047;-96
2023/04/13 15:01:43;;;;;;;37.38;36.08;;;;;;;;;;4993431;28;20057;-96
2023/04/13 15:04:11;;;;;;;39.50;37.97;;;;;;;;;;4998409;28;20051;-96